sensor_id;sensor_type;location;lat;lon;timestamp;temperature;humidity
9907;DHT22;4992;51.628;6.664;2024-03-08T00:01:48;3.30;99.90
9907;DHT22;4992;51.628;6.664;2024-03-08T00:04:13;3.30;99.90
9907;DHT22;4992;51.628;6.664;2024-03-08T00:06:41;3.30;99.90
9907;DHT22;4992;51.628;6.664;2024-03-08T00:09:06;3.20;99.90
9907;DHT22;4992;51.628;6.664;2024-03-08T00:11:33;3.20;99.90
9907;DHT22;4992;51.628;6.664;2024-03-08T00:13:59;3.20;99.90
9907;DHT22;4992;51.628;6.664;2024-03-08T00:16:24;3.20;99.90
9907;DHT22;4992;51.628;6.664;2024-03-08T00:18:50;3.10;99.90
9907;DHT22;4992;51.628;6.664;2024-03-08T00:21:15;3.10;99.90
9907;DHT22;4992;51.628;6.664;2024-03-08T00:23:41;3.10;99.90
9907;DHT22;4992;51.628;6.664;2024-03-08T00:26:07;3.10;99.90
9907;DHT22;4992;51.628;6.664;2024-03-08T00:28:32;3.10;99.90
9907;DHT22;4992;51.628;6.664;2024-03-08T00:30:59;3.10;99.90
9907;DHT22;4992;51.628;6.664;2024-03-08T00:33:25;3.10;99.90
9907;DHT22;4992;51.628;6.664;2024-03-08T00:35:53;3.00;99.90
9907;DHT22;4992;51.628;6.664;2024-03-08T00:38:18;3.00;99.90
9907;DHT22;4992;51.628;6.664;2024-03-08T00:40:44;3.00;99.90
9907;DHT22;4992;51.628;6.664;2024-03-08T00:43:10;3.00;99.90
9907;DHT22;4992;51.628;6.664;2024-03-08T00:45:35;3.00;99.90
9907;DHT22;4992;51.628;6.664;2024-03-08T00:48:02;3.00;99.90
9907;DHT22;4992;51.628;6.664;2024-03-08T00:50:28;2.90;99.90
9907;DHT22;4992;51.628;6.664;2024-03-08T00:52:54;2.90;99.90
9907;DHT22;4992;51.628;6.664;2024-03-08T00:55:20;2.90;99.90
9907;DHT22;4992;51.628;6.664;2024-03-08T00:57:45;2.80;99.90
9907;DHT22;4992;51.628;6.664;2024-03-08T01:00:11;2.80;99.90
9907;DHT22;4992;51.628;6.664;2024-03-08T01:02:40;2.70;99.90
9907;DHT22;4992;51.628;6.664;2024-03-08T01:05:06;2.70;99.90
9907;DHT22;4992;51.628;6.664;2024-03-08T01:07:34;2.70;99.90
9907;DHT22;4992;51.628;6.664;2024-03-08T01:10:02;2.70;99.90
9907;DHT22;4992;51.628;6.664;2024-03-08T01:12:28;2.70;99.90
9907;DHT22;4992;51.628;6.664;2024-03-08T01:14:53;2.70;99.90
9907;DHT22;4992;51.628;6.664;2024-03-08T01:17:19;2.70;99.90
9907;DHT22;4992;51.628;6.664;2024-03-08T01:19:44;2.70;99.90
9907;DHT22;4992;51.628;6.664;2024-03-08T01:22:10;2.70;99.90
9907;DHT22;4992;51.628;6.664;2024-03-08T01:24:36;2.60;99.90
9907;DHT22;4992;51.628;6.664;2024-03-08T01:27:02;2.70;99.90
9907;DHT22;4992;51.628;6.664;2024-03-08T01:29:28;2.70;99.90
9907;DHT22;4992;51.628;6.664;2024-03-08T01:31:55;2.70;99.90
9907;DHT22;4992;51.628;6.664;2024-03-08T01:34:21;2.70;99.90
9907;DHT22;4992;51.628;6.664;2024-03-08T01:36:48;2.70;99.90
9907;DHT22;4992;51.628;6.664;2024-03-08T01:39:14;2.70;99.90
9907;DHT22;4992;51.628;6.664;2024-03-08T01:41:39;2.70;99.90
9907;DHT22;4992;51.628;6.664;2024-03-08T01:44:05;2.60;99.90
9907;DHT22;4992;51.628;6.664;2024-03-08T01:46:33;2.60;99.90
9907;DHT22;4992;51.628;6.664;2024-03-08T01:49:00;2.60;99.90
9907;DHT22;4992;51.628;6.664;2024-03-08T01:51:26;2.60;99.90
9907;DHT22;4992;51.628;6.664;2024-03-08T01:53:55;2.60;99.90
9907;DHT22;4992;51.628;6.664;2024-03-08T01:56:23;2.60;99.90
9907;DHT22;4992;51.628;6.664;2024-03-08T01:58:50;2.50;99.90
9907;DHT22;4992;51.628;6.664;2024-03-08T02:01:16;2.50;99.90
9907;DHT22;4992;51.628;6.664;2024-03-08T02:03:42;2.50;99.90
9907;DHT22;4992;51.628;6.664;2024-03-08T02:06:11;2.40;99.90
9907;DHT22;4992;51.628;6.664;2024-03-08T02:08:37;2.40;99.90
9907;DHT22;4992;51.628;6.664;2024-03-08T02:11:04;2.40;99.90
9907;DHT22;4992;51.628;6.664;2024-03-08T02:13:30;2.40;99.90
9907;DHT22;4992;51.628;6.664;2024-03-08T02:15:57;2.30;99.90
9907;DHT22;4992;51.628;6.664;2024-03-08T02:18:24;2.30;99.90
9907;DHT22;4992;51.628;6.664;2024-03-08T02:20:54;2.30;99.90
9907;DHT22;4992;51.628;6.664;2024-03-08T02:23:20;2.30;99.90
9907;DHT22;4992;51.628;6.664;2024-03-08T02:25:47;2.20;99.90
9907;DHT22;4992;51.628;6.664;2024-03-08T02:28:14;2.10;99.90
9907;DHT22;4992;51.628;6.664;2024-03-08T02:30:40;2.10;99.90
9907;DHT22;4992;51.628;6.664;2024-03-08T02:33:06;2.10;99.90
9907;DHT22;4992;51.628;6.664;2024-03-08T02:35:32;2.10;99.90
9907;DHT22;4992;51.628;6.664;2024-03-08T02:38:02;2.00;99.90
9907;DHT22;4992;51.628;6.664;2024-03-08T02:40:29;2.00;99.90
9907;DHT22;4992;51.628;6.664;2024-03-08T02:42:54;2.00;99.90
9907;DHT22;4992;51.628;6.664;2024-03-08T02:45:20;1.90;99.90
9907;DHT22;4992;51.628;6.664;2024-03-08T02:47:46;2.00;99.90
9907;DHT22;4992;51.628;6.664;2024-03-08T02:50:11;1.90;99.90
9907;DHT22;4992;51.628;6.664;2024-03-08T02:52:37;1.90;99.90
9907;DHT22;4992;51.628;6.664;2024-03-08T02:55:03;1.90;99.90
9907;DHT22;4992;51.628;6.664;2024-03-08T02:57:31;1.90;99.90
9907;DHT22;4992;51.628;6.664;2024-03-08T02:59:57;1.90;99.90
9907;DHT22;4992;51.628;6.664;2024-03-08T03:02:25;1.90;99.90
9907;DHT22;4992;51.628;6.664;2024-03-08T03:04:52;1.90;99.90
9907;DHT22;4992;51.628;6.664;2024-03-08T03:07:17;1.90;99.90
9907;DHT22;4992;51.628;6.664;2024-03-08T03:09:43;1.90;99.90
9907;DHT22;4992;51.628;6.664;2024-03-08T03:12:08;1.90;99.90
9907;DHT22;4992;51.628;6.664;2024-03-08T03:14:35;1.80;99.90
9907;DHT22;4992;51.628;6.664;2024-03-08T03:17:04;1.80;99.90
9907;DHT22;4992;51.628;6.664;2024-03-08T03:19:30;1.80;99.90
9907;DHT22;4992;51.628;6.664;2024-03-08T03:21:55;1.80;99.90
9907;DHT22;4992;51.628;6.664;2024-03-08T03:24:21;1.80;99.90
9907;DHT22;4992;51.628;6.664;2024-03-08T03:26:46;1.70;99.90
9907;DHT22;4992;51.628;6.664;2024-03-08T03:29:14;1.70;99.90
9907;DHT22;4992;51.628;6.664;2024-03-08T03:31:41;1.70;99.90
9907;DHT22;4992;51.628;6.664;2024-03-08T03:34:06;1.60;99.90
9907;DHT22;4992;51.628;6.664;2024-03-08T03:36:34;1.70;99.90
9907;DHT22;4992;51.628;6.664;2024-03-08T03:39:01;1.70;99.90
9907;DHT22;4992;51.628;6.664;2024-03-08T03:41:45;1.70;99.90
9907;DHT22;4992;51.628;6.664;2024-03-08T03:44:11;1.70;99.90
9907;DHT22;4992;51.628;6.664;2024-03-08T03:46:37;1.70;99.90
9907;DHT22;4992;51.628;6.664;2024-03-08T03:49:03;1.70;99.90
9907;DHT22;4992;51.628;6.664;2024-03-08T03:51:29;1.70;99.90
9907;DHT22;4992;51.628;6.664;2024-03-08T03:53:55;1.70;99.90
9907;DHT22;4992;51.628;6.664;2024-03-08T03:56:25;1.70;99.90
9907;DHT22;4992;51.628;6.664;2024-03-08T03:58:51;1.70;99.90
9907;DHT22;4992;51.628;6.664;2024-03-08T04:01:17;1.70;99.90
9907;DHT22;4992;51.628;6.664;2024-03-08T04:03:42;1.70;99.90
9907;DHT22;4992;51.628;6.664;2024-03-08T04:06:08;1.60;99.90
9907;DHT22;4992;51.628;6.664;2024-03-08T04:08:34;1.60;99.90
9907;DHT22;4992;51.628;6.664;2024-03-08T04:11:00;1.70;99.90
9907;DHT22;4992;51.628;6.664;2024-03-08T04:13:26;1.60;99.90
9907;DHT22;4992;51.628;6.664;2024-03-08T04:15:51;1.60;99.90
9907;DHT22;4992;51.628;6.664;2024-03-08T04:18:17;1.60;99.90
9907;DHT22;4992;51.628;6.664;2024-03-08T04:20:43;1.50;99.90
9907;DHT22;4992;51.628;6.664;2024-03-08T04:23:09;1.50;99.90
9907;DHT22;4992;51.628;6.664;2024-03-08T04:25:34;1.50;99.90
9907;DHT22;4992;51.628;6.664;2024-03-08T04:28:00;1.50;99.90
9907;DHT22;4992;51.628;6.664;2024-03-08T04:30:25;1.40;99.90
9907;DHT22;4992;51.628;6.664;2024-03-08T04:32:53;1.40;99.90
9907;DHT22;4992;51.628;6.664;2024-03-08T04:35:19;1.40;99.90
9907;DHT22;4992;51.628;6.664;2024-03-08T04:37:45;1.40;99.90
9907;DHT22;4992;51.628;6.664;2024-03-08T04:40:11;1.40;99.90
9907;DHT22;4992;51.628;6.664;2024-03-08T04:42:37;1.40;99.90
9907;DHT22;4992;51.628;6.664;2024-03-08T04:45:04;1.40;99.90
9907;DHT22;4992;51.628;6.664;2024-03-08T04:47:30;1.30;99.90
9907;DHT22;4992;51.628;6.664;2024-03-08T04:49:56;1.40;99.90
9907;DHT22;4992;51.628;6.664;2024-03-08T04:52:22;1.30;99.90
9907;DHT22;4992;51.628;6.664;2024-03-08T04:54:48;1.30;99.90
9907;DHT22;4992;51.628;6.664;2024-03-08T04:57:13;1.30;99.90
9907;DHT22;4992;51.628;6.664;2024-03-08T04:59:39;1.30;99.90
9907;DHT22;4992;51.628;6.664;2024-03-08T05:02:05;1.30;99.90
9907;DHT22;4992;51.628;6.664;2024-03-08T05:04:32;1.30;99.90
9907;DHT22;4992;51.628;6.664;2024-03-08T05:06:58;1.20;99.90
9907;DHT22;4992;51.628;6.664;2024-03-08T05:09:26;1.20;99.90
9907;DHT22;4992;51.628;6.664;2024-03-08T05:11:54;1.20;99.90
9907;DHT22;4992;51.628;6.664;2024-03-08T05:14:19;1.10;99.90
9907;DHT22;4992;51.628;6.664;2024-03-08T05:16:46;1.10;99.90
9907;DHT22;4992;51.628;6.664;2024-03-08T05:19:15;1.10;99.90
9907;DHT22;4992;51.628;6.664;2024-03-08T05:21:43;1.10;99.90
9907;DHT22;4992;51.628;6.664;2024-03-08T05:24:09;1.00;99.90
9907;DHT22;4992;51.628;6.664;2024-03-08T05:26:35;1.00;99.90
9907;DHT22;4992;51.628;6.664;2024-03-08T05:29:03;1.00;99.90
9907;DHT22;4992;51.628;6.664;2024-03-08T05:31:29;1.00;99.90
9907;DHT22;4992;51.628;6.664;2024-03-08T05:33:56;1.00;99.90
9907;DHT22;4992;51.628;6.664;2024-03-08T05:36:21;1.00;99.90
9907;DHT22;4992;51.628;6.664;2024-03-08T05:38:47;1.00;99.90
9907;DHT22;4992;51.628;6.664;2024-03-08T05:41:15;1.00;99.90
9907;DHT22;4992;51.628;6.664;2024-03-08T05:43:40;1.00;99.90
9907;DHT22;4992;51.628;6.664;2024-03-08T05:46:07;0.90;99.90
9907;DHT22;4992;51.628;6.664;2024-03-08T05:48:32;0.90;99.90
9907;DHT22;4992;51.628;6.664;2024-03-08T05:50:59;0.90;99.90
9907;DHT22;4992;51.628;6.664;2024-03-08T05:53:25;0.90;99.90
9907;DHT22;4992;51.628;6.664;2024-03-08T05:55:52;0.90;99.90
9907;DHT22;4992;51.628;6.664;2024-03-08T05:58:17;0.90;99.90
9907;DHT22;4992;51.628;6.664;2024-03-08T06:00:43;0.90;99.90
9907;DHT22;4992;51.628;6.664;2024-03-08T06:03:08;0.90;99.90
9907;DHT22;4992;51.628;6.664;2024-03-08T06:05:34;0.90;99.90
9907;DHT22;4992;51.628;6.664;2024-03-08T06:08:00;0.90;99.90
9907;DHT22;4992;51.628;6.664;2024-03-08T06:10:25;0.90;99.90
9907;DHT22;4992;51.628;6.664;2024-03-08T06:12:51;1.00;99.90
9907;DHT22;4992;51.628;6.664;2024-03-08T06:15:17;1.00;99.90
9907;DHT22;4992;51.628;6.664;2024-03-08T06:17:42;1.10;99.90
9907;DHT22;4992;51.628;6.664;2024-03-08T06:20:08;1.10;99.90
9907;DHT22;4992;51.628;6.664;2024-03-08T06:22:38;1.00;99.90
9907;DHT22;4992;51.628;6.664;2024-03-08T06:25:11;1.10;99.90
9907;DHT22;4992;51.628;6.664;2024-03-08T06:27:40;1.10;99.90
9907;DHT22;4992;51.628;6.664;2024-03-08T06:30:06;1.10;99.90
9907;DHT22;4992;51.628;6.664;2024-03-08T06:32:40;1.10;99.90
9907;DHT22;4992;51.628;6.664;2024-03-08T06:35:08;1.20;99.90
9907;DHT22;4992;51.628;6.664;2024-03-08T06:37:35;1.20;99.90
9907;DHT22;4992;51.628;6.664;2024-03-08T06:40:02;1.20;99.90
9907;DHT22;4992;51.628;6.664;2024-03-08T06:42:28;1.20;99.90
9907;DHT22;4992;51.628;6.664;2024-03-08T06:44:54;1.20;99.90
9907;DHT22;4992;51.628;6.664;2024-03-08T06:47:25;1.30;99.90
9907;DHT22;4992;51.628;6.664;2024-03-08T06:49:51;1.30;99.90
9907;DHT22;4992;51.628;6.664;2024-03-08T06:52:17;1.40;99.90
9907;DHT22;4992;51.628;6.664;2024-03-08T06:54:43;1.40;99.90
9907;DHT22;4992;51.628;6.664;2024-03-08T06:57:08;1.40;99.90
9907;DHT22;4992;51.628;6.664;2024-03-08T06:59:35;1.50;99.90
9907;DHT22;4992;51.628;6.664;2024-03-08T07:02:02;1.50;99.90
9907;DHT22;4992;51.628;6.664;2024-03-08T07:04:27;1.50;99.90
9907;DHT22;4992;51.628;6.664;2024-03-08T07:06:55;1.60;99.90
9907;DHT22;4992;51.628;6.664;2024-03-08T07:09:21;1.60;99.90
9907;DHT22;4992;51.628;6.664;2024-03-08T07:11:47;1.70;99.90
9907;DHT22;4992;51.628;6.664;2024-03-08T07:14:12;1.70;99.90
9907;DHT22;4992;51.628;6.664;2024-03-08T07:16:40;1.80;99.90
9907;DHT22;4992;51.628;6.664;2024-03-08T07:19:07;1.90;99.90
9907;DHT22;4992;51.628;6.664;2024-03-08T07:21:32;1.90;99.90
9907;DHT22;4992;51.628;6.664;2024-03-08T07:23:58;2.00;99.90
9907;DHT22;4992;51.628;6.664;2024-03-08T07:26:35;2.10;99.90
9907;DHT22;4992;51.628;6.664;2024-03-08T07:29:00;2.10;99.90
9907;DHT22;4992;51.628;6.664;2024-03-08T07:31:26;2.20;99.90
9907;DHT22;4992;51.628;6.664;2024-03-08T07:33:51;2.30;99.90
9907;DHT22;4992;51.628;6.664;2024-03-08T07:36:19;2.40;99.90
9907;DHT22;4992;51.628;6.664;2024-03-08T07:38:44;2.50;99.90
9907;DHT22;4992;51.628;6.664;2024-03-08T07:41:12;2.60;99.90
9907;DHT22;4992;51.628;6.664;2024-03-08T07:43:38;2.70;99.90
9907;DHT22;4992;51.628;6.664;2024-03-08T07:46:03;2.70;99.90
9907;DHT22;4992;51.628;6.664;2024-03-08T07:48:29;2.80;99.90
9907;DHT22;4992;51.628;6.664;2024-03-08T07:50:56;2.90;99.90
9907;DHT22;4992;51.628;6.664;2024-03-08T07:53:22;3.10;99.90
9907;DHT22;4992;51.628;6.664;2024-03-08T07:55:49;3.20;99.90
9907;DHT22;4992;51.628;6.664;2024-03-08T07:58:15;3.30;99.90
9907;DHT22;4992;51.628;6.664;2024-03-08T08:00:40;3.50;99.90
9907;DHT22;4992;51.628;6.664;2024-03-08T08:03:08;3.60;99.90
9907;DHT22;4992;51.628;6.664;2024-03-08T08:05:34;3.80;99.90
9907;DHT22;4992;51.628;6.664;2024-03-08T08:08:04;3.90;99.90
9907;DHT22;4992;51.628;6.664;2024-03-08T08:10:32;4.10;99.90
9907;DHT22;4992;51.628;6.664;2024-03-08T08:12:58;4.30;99.90
9907;DHT22;4992;51.628;6.664;2024-03-08T08:15:24;4.50;99.90
9907;DHT22;4992;51.628;6.664;2024-03-08T08:17:49;4.80;99.90
9907;DHT22;4992;51.628;6.664;2024-03-08T08:20:15;4.90;99.90
9907;DHT22;4992;51.628;6.664;2024-03-08T08:22:41;5.10;99.90
9907;DHT22;4992;51.628;6.664;2024-03-08T08:25:07;5.40;99.90
9907;DHT22;4992;51.628;6.664;2024-03-08T08:27:33;5.60;99.90
9907;DHT22;4992;51.628;6.664;2024-03-08T08:29:59;5.80;99.90
9907;DHT22;4992;51.628;6.664;2024-03-08T08:32:25;6.00;99.90
9907;DHT22;4992;51.628;6.664;2024-03-08T08:34:51;6.10;99.90
9907;DHT22;4992;51.628;6.664;2024-03-08T08:37:17;6.20;99.90
9907;DHT22;4992;51.628;6.664;2024-03-08T08:39:42;6.30;99.90
9907;DHT22;4992;51.628;6.664;2024-03-08T08:42:08;6.40;99.90
9907;DHT22;4992;51.628;6.664;2024-03-08T08:44:35;6.40;99.90
9907;DHT22;4992;51.628;6.664;2024-03-08T08:47:01;6.60;99.90
9907;DHT22;4992;51.628;6.664;2024-03-08T08:49:26;6.60;99.90
9907;DHT22;4992;51.628;6.664;2024-03-08T08:51:52;6.70;99.90
9907;DHT22;4992;51.628;6.664;2024-03-08T08:54:18;6.80;99.90
9907;DHT22;4992;51.628;6.664;2024-03-08T08:56:44;6.90;99.90
9907;DHT22;4992;51.628;6.664;2024-03-08T08:59:10;6.90;99.90
9907;DHT22;4992;51.628;6.664;2024-03-08T09:01:39;7.00;99.90
9907;DHT22;4992;51.628;6.664;2024-03-08T09:04:05;7.20;99.90
9907;DHT22;4992;51.628;6.664;2024-03-08T09:06:31;7.20;99.90
9907;DHT22;4992;51.628;6.664;2024-03-08T09:08:56;7.20;99.90
9907;DHT22;4992;51.628;6.664;2024-03-08T09:11:23;7.20;99.90
9907;DHT22;4992;51.628;6.664;2024-03-08T09:13:50;7.20;99.90
9907;DHT22;4992;51.628;6.664;2024-03-08T09:16:16;7.20;99.90
9907;DHT22;4992;51.628;6.664;2024-03-08T09:18:41;7.20;99.90
9907;DHT22;4992;51.628;6.664;2024-03-08T09:21:07;7.20;99.90
9907;DHT22;4992;51.628;6.664;2024-03-08T09:23:38;7.20;99.90
9907;DHT22;4992;51.628;6.664;2024-03-08T09:26:03;7.20;99.90
9907;DHT22;4992;51.628;6.664;2024-03-08T09:28:29;7.20;99.90
9907;DHT22;4992;51.628;6.664;2024-03-08T09:30:55;7.30;99.90
9907;DHT22;4992;51.628;6.664;2024-03-08T09:33:21;7.30;99.90
9907;DHT22;4992;51.628;6.664;2024-03-08T09:35:47;7.30;99.90
9907;DHT22;4992;51.628;6.664;2024-03-08T09:38:14;7.40;99.90
9907;DHT22;4992;51.628;6.664;2024-03-08T09:40:42;7.40;99.90
9907;DHT22;4992;51.628;6.664;2024-03-08T09:43:12;7.40;99.90
9907;DHT22;4992;51.628;6.664;2024-03-08T09:45:38;7.50;99.90
9907;DHT22;4992;51.628;6.664;2024-03-08T09:48:10;7.50;99.90
9907;DHT22;4992;51.628;6.664;2024-03-08T09:50:38;7.50;99.90
9907;DHT22;4992;51.628;6.664;2024-03-08T09:53:03;7.50;99.90
9907;DHT22;4992;51.628;6.664;2024-03-08T09:55:29;7.50;99.90
9907;DHT22;4992;51.628;6.664;2024-03-08T09:58:00;7.50;99.90
9907;DHT22;4992;51.628;6.664;2024-03-08T10:00:46;7.60;99.90
9907;DHT22;4992;51.628;6.664;2024-03-08T10:03:11;7.70;99.90
9907;DHT22;4992;51.628;6.664;2024-03-08T10:05:40;7.70;99.90
9907;DHT22;4992;51.628;6.664;2024-03-08T10:08:06;7.90;99.90
9907;DHT22;4992;51.628;6.664;2024-03-08T10:10:35;7.90;99.90
9907;DHT22;4992;51.628;6.664;2024-03-08T10:13:01;8.00;99.90
9907;DHT22;4992;51.628;6.664;2024-03-08T10:15:27;8.00;99.90
9907;DHT22;4992;51.628;6.664;2024-03-08T10:17:55;8.20;99.90
9907;DHT22;4992;51.628;6.664;2024-03-08T10:20:21;8.30;99.90
9907;DHT22;4992;51.628;6.664;2024-03-08T10:22:49;8.40;99.90
9907;DHT22;4992;51.628;6.664;2024-03-08T10:25:15;8.40;99.90
9907;DHT22;4992;51.628;6.664;2024-03-08T10:27:41;8.50;99.90
9907;DHT22;4992;51.628;6.664;2024-03-08T10:30:12;8.60;99.90
9907;DHT22;4992;51.628;6.664;2024-03-08T10:32:39;8.60;99.90
9907;DHT22;4992;51.628;6.664;2024-03-08T10:35:07;8.60;99.90
9907;DHT22;4992;51.628;6.664;2024-03-08T10:40:04;8.80;99.90
9907;DHT22;4992;51.628;6.664;2024-03-08T10:42:40;8.90;99.90
9907;DHT22;4992;51.628;6.664;2024-03-08T10:45:15;9.10;99.90
9907;DHT22;4992;51.628;6.664;2024-03-08T10:47:45;9.30;99.90
9907;DHT22;4992;51.628;6.664;2024-03-08T10:50:20;9.50;99.90
9907;DHT22;4992;51.628;6.664;2024-03-08T10:52:49;9.80;99.90
9907;DHT22;4992;51.628;6.664;2024-03-08T10:55:19;10.00;99.90
9907;DHT22;4992;51.628;6.664;2024-03-08T10:57:48;10.40;99.90
9907;DHT22;4992;51.628;6.664;2024-03-08T11:00:14;10.80;99.90
9907;DHT22;4992;51.628;6.664;2024-03-08T11:02:44;11.00;99.90
9907;DHT22;4992;51.628;6.664;2024-03-08T11:08:01;11.40;99.90
9907;DHT22;4992;51.628;6.664;2024-03-08T11:10:27;11.40;99.90
9907;DHT22;4992;51.628;6.664;2024-03-08T11:12:53;11.60;99.90
9907;DHT22;4992;51.628;6.664;2024-03-08T11:15:18;11.70;99.90
9907;DHT22;4992;51.628;6.664;2024-03-08T11:17:48;12.00;99.90
9907;DHT22;4992;51.628;6.664;2024-03-08T11:20:16;12.30;99.90
9907;DHT22;4992;51.628;6.664;2024-03-08T11:22:48;12.50;99.90
9907;DHT22;4992;51.628;6.664;2024-03-08T11:25:35;12.90;99.90
9907;DHT22;4992;51.628;6.664;2024-03-08T11:28:25;13.30;99.90
9907;DHT22;4992;51.628;6.664;2024-03-08T11:33:28;14.20;99.90
9907;DHT22;4992;51.628;6.664;2024-03-08T11:36:12;14.60;99.90
9907;DHT22;4992;51.628;6.664;2024-03-08T11:38:45;14.50;99.90
9907;DHT22;4992;51.628;6.664;2024-03-08T11:41:21;14.80;99.50
9907;DHT22;4992;51.628;6.664;2024-03-08T11:43:47;14.70;99.90
9907;DHT22;4992;51.628;6.664;2024-03-08T11:46:14;15.30;98.90
9907;DHT22;4992;51.628;6.664;2024-03-08T11:48:41;15.70;98.00
9907;DHT22;4992;51.628;6.664;2024-03-08T11:51:13;15.70;96.60
9907;DHT22;4992;51.628;6.664;2024-03-08T11:53:40;15.60;95.50
9907;DHT22;4992;51.628;6.664;2024-03-08T11:56:10;15.40;96.30
9907;DHT22;4992;51.628;6.664;2024-03-08T11:58:37;15.90;96.20
9907;DHT22;4992;51.628;6.664;2024-03-08T12:01:07;16.40;96.10
9907;DHT22;4992;51.628;6.664;2024-03-08T12:03:33;16.30;94.00
9907;DHT22;4992;51.628;6.664;2024-03-08T12:06:00;15.80;94.20
9907;DHT22;4992;51.628;6.664;2024-03-08T12:08:25;15.50;95.10
9907;DHT22;4992;51.628;6.664;2024-03-08T12:10:53;15.60;94.30
9907;DHT22;4992;51.628;6.664;2024-03-08T12:13:31;16.00;95.10
9907;DHT22;4992;51.628;6.664;2024-03-08T12:15:58;16.20;94.00
9907;DHT22;4992;51.628;6.664;2024-03-08T12:18:26;16.30;93.80
9907;DHT22;4992;51.628;6.664;2024-03-08T12:21:07;16.20;94.30
9907;DHT22;4992;51.628;6.664;2024-03-08T12:23:34;16.20;94.10
9907;DHT22;4992;51.628;6.664;2024-03-08T12:26:17;16.50;92.90
9907;DHT22;4992;51.628;6.664;2024-03-08T12:28:44;16.30;93.30
9907;DHT22;4992;51.628;6.664;2024-03-08T12:31:14;16.20;93.20
9907;DHT22;4992;51.628;6.664;2024-03-08T12:33:54;16.50;94.20
9907;DHT22;4992;51.628;6.664;2024-03-08T12:36:21;17.10;92.60
9907;DHT22;4992;51.628;6.664;2024-03-08T12:38:47;16.80;92.40
9907;DHT22;4992;51.628;6.664;2024-03-08T12:43:43;16.90;92.20
9907;DHT22;4992;51.628;6.664;2024-03-08T12:46:14;16.90;92.50
9907;DHT22;4992;51.628;6.664;2024-03-08T12:48:40;17.30;91.40
9907;DHT22;4992;51.628;6.664;2024-03-08T12:51:08;17.60;91.10
9907;DHT22;4992;51.628;6.664;2024-03-08T12:53:34;17.80;90.40
9907;DHT22;4992;51.628;6.664;2024-03-08T12:56:00;17.90;89.30
9907;DHT22;4992;51.628;6.664;2024-03-08T12:58:26;18.20;90.60
9907;DHT22;4992;51.628;6.664;2024-03-08T13:00:52;18.20;89.20
9907;DHT22;4992;51.628;6.664;2024-03-08T13:03:17;18.10;90.50
9907;DHT22;4992;51.628;6.664;2024-03-08T13:05:43;18.20;87.90
9907;DHT22;4992;51.628;6.664;2024-03-08T13:08:09;18.00;89.90
9907;DHT22;4992;51.628;6.664;2024-03-08T13:10:41;18.20;89.20
9907;DHT22;4992;51.628;6.664;2024-03-08T13:13:09;18.40;87.10
9907;DHT22;4992;51.628;6.664;2024-03-08T13:15:35;18.20;87.90
9907;DHT22;4992;51.628;6.664;2024-03-08T13:18:01;18.00;86.50
9907;DHT22;4992;51.628;6.664;2024-03-08T13:20:27;17.80;86.50
9907;DHT22;4992;51.628;6.664;2024-03-08T13:22:53;17.60;86.40
9907;DHT22;4992;51.628;6.664;2024-03-08T13:25:19;17.40;87.10
9907;DHT22;4992;51.628;6.664;2024-03-08T13:27:45;17.60;88.60
9907;DHT22;4992;51.628;6.664;2024-03-08T13:30:12;17.80;87.90
9907;DHT22;4992;51.628;6.664;2024-03-08T13:32:41;18.10;87.50
9907;DHT22;4992;51.628;6.664;2024-03-08T13:35:10;17.90;87.10
9907;DHT22;4992;51.628;6.664;2024-03-08T13:37:40;18.10;87.30
9907;DHT22;4992;51.628;6.664;2024-03-08T13:40:06;17.90;84.60
9907;DHT22;4992;51.628;6.664;2024-03-08T13:42:39;17.90;85.90
9907;DHT22;4992;51.628;6.664;2024-03-08T13:45:06;17.70;86.00
9907;DHT22;4992;51.628;6.664;2024-03-08T13:47:34;17.70;86.20
9907;DHT22;4992;51.628;6.664;2024-03-08T13:50:00;18.40;85.00
9907;DHT22;4992;51.628;6.664;2024-03-08T13:52:26;18.60;84.30
9907;DHT22;4992;51.628;6.664;2024-03-08T13:54:55;18.90;83.40
9907;DHT22;4992;51.628;6.664;2024-03-08T13:57:20;19.30;84.30
9907;DHT22;4992;51.628;6.664;2024-03-08T13:59:48;19.60;83.90
9907;DHT22;4992;51.628;6.664;2024-03-08T14:02:14;19.90;81.90
9907;DHT22;4992;51.628;6.664;2024-03-08T14:04:41;20.40;82.50
9907;DHT22;4992;51.628;6.664;2024-03-08T14:07:07;20.50;78.90
9907;DHT22;4992;51.628;6.664;2024-03-08T14:09:34;20.60;77.40
9907;DHT22;4992;51.628;6.664;2024-03-08T14:12:05;20.60;78.80
9907;DHT22;4992;51.628;6.664;2024-03-08T14:14:33;21.10;77.80
9907;DHT22;4992;51.628;6.664;2024-03-08T14:17:00;21.10;75.10
9907;DHT22;4992;51.628;6.664;2024-03-08T14:19:27;21.50;74.60
9907;DHT22;4992;51.628;6.664;2024-03-08T14:21:53;21.60;72.50
9907;DHT22;4992;51.628;6.664;2024-03-08T14:24:19;21.10;73.10
9907;DHT22;4992;51.628;6.664;2024-03-08T14:26:45;21.20;74.00
9907;DHT22;4992;51.628;6.664;2024-03-08T14:29:10;21.20;71.70
9907;DHT22;4992;51.628;6.664;2024-03-08T14:31:37;21.20;72.50
9907;DHT22;4992;51.628;6.664;2024-03-08T14:34:02;20.90;72.00
9907;DHT22;4992;51.628;6.664;2024-03-08T14:36:29;20.50;73.20
9907;DHT22;4992;51.628;6.664;2024-03-08T14:38:55;20.20;74.70
9907;DHT22;4992;51.628;6.664;2024-03-08T14:41:20;19.10;74.40
9907;DHT22;4992;51.628;6.664;2024-03-08T14:43:47;18.50;74.90
9907;DHT22;4992;51.628;6.664;2024-03-08T14:46:14;18.30;75.90
9907;DHT22;4992;51.628;6.664;2024-03-08T14:48:43;17.70;77.30
9907;DHT22;4992;51.628;6.664;2024-03-08T14:51:09;16.60;79.50
9907;DHT22;4992;51.628;6.664;2024-03-08T14:53:36;15.90;82.40
9907;DHT22;4992;51.628;6.664;2024-03-08T14:56:08;15.10;84.50
9907;DHT22;4992;51.628;6.664;2024-03-08T14:58:34;14.50;88.80
9907;DHT22;4992;51.628;6.664;2024-03-08T15:01:00;14.20;89.70
9907;DHT22;4992;51.628;6.664;2024-03-08T15:03:27;14.00;89.80
9907;DHT22;4992;51.628;6.664;2024-03-08T15:05:54;13.60;90.50
9907;DHT22;4992;51.628;6.664;2024-03-08T15:08:21;13.40;90.70
9907;DHT22;4992;51.628;6.664;2024-03-08T15:10:48;13.10;91.10
9907;DHT22;4992;51.628;6.664;2024-03-08T15:13:20;12.80;92.10
9907;DHT22;4992;51.628;6.664;2024-03-08T15:15:48;12.90;92.90
9907;DHT22;4992;51.628;6.664;2024-03-08T15:18:21;12.80;92.50
9907;DHT22;4992;51.628;6.664;2024-03-08T15:20:46;12.60;92.90
9907;DHT22;4992;51.628;6.664;2024-03-08T15:23:13;12.50;93.50
9907;DHT22;4992;51.628;6.664;2024-03-08T15:25:39;12.40;93.90
9907;DHT22;4992;51.628;6.664;2024-03-08T15:28:07;12.30;94.10
9907;DHT22;4992;51.628;6.664;2024-03-08T15:30:39;12.30;94.20
9907;DHT22;4992;51.628;6.664;2024-03-08T15:33:05;12.20;94.20
9907;DHT22;4992;51.628;6.664;2024-03-08T15:35:35;12.10;94.50
9907;DHT22;4992;51.628;6.664;2024-03-08T15:38:03;11.90;94.70
9907;DHT22;4992;51.628;6.664;2024-03-08T15:40:29;11.80;95.20
9907;DHT22;4992;51.628;6.664;2024-03-08T15:42:59;11.60;95.70
9907;DHT22;4992;51.628;6.664;2024-03-08T15:45:25;11.50;95.60
9907;DHT22;4992;51.628;6.664;2024-03-08T15:47:55;11.30;96.50
9907;DHT22;4992;51.628;6.664;2024-03-08T15:50:20;11.20;96.60
9907;DHT22;4992;51.628;6.664;2024-03-08T15:52:49;11.10;96.60
9907;DHT22;4992;51.628;6.664;2024-03-08T15:55:18;11.00;97.10
9907;DHT22;4992;51.628;6.664;2024-03-08T15:57:50;10.80;97.60
9907;DHT22;4992;51.628;6.664;2024-03-08T16:00:17;10.70;97.70
9907;DHT22;4992;51.628;6.664;2024-03-08T16:03:04;10.70;98.00
9907;DHT22;4992;51.628;6.664;2024-03-08T16:05:37;10.60;98.40
9907;DHT22;4992;51.628;6.664;2024-03-08T16:08:04;10.60;98.50
9907;DHT22;4992;51.628;6.664;2024-03-08T16:10:30;10.60;98.70
9907;DHT22;4992;51.628;6.664;2024-03-08T16:12:56;10.50;99.10
9907;DHT22;4992;51.628;6.664;2024-03-08T16:15:22;10.50;99.30
9907;DHT22;4992;51.628;6.664;2024-03-08T16:17:48;10.40;99.20
9907;DHT22;4992;51.628;6.664;2024-03-08T16:20:14;10.40;99.50
9907;DHT22;4992;51.628;6.664;2024-03-08T16:22:46;10.30;99.60